createdAt,value
2023-04-07T00:01:38.313Z,101605.38
2023-04-07T00:04:04.763Z,101550.53
2023-04-07T00:06:31.112Z,101575.56
2023-04-07T00:08:57.314Z,101605.53
2023-04-07T00:11:23.534Z,101621.97
2023-04-07T00:13:49.763Z,101622.28
2023-04-07T00:16:15.989Z,101584.09
2023-04-07T00:18:42.235Z,101582.47
2023-04-07T00:21:08.440Z,101549.25
2023-04-07T00:23:34.787Z,101519.16
2023-04-07T00:26:00.992Z,101513.13
2023-04-07T00:28:27.205Z,101473.16
2023-04-07T00:30:53.445Z,101480.00
2023-04-07T00:33:19.764Z,101474.53
2023-04-07T00:35:46.013Z,101492.91
2023-04-07T00:38:12.236Z,101534.31
2023-04-07T00:40:38.452Z,101563.97
2023-04-07T00:43:04.658Z,101586.84
2023-04-07T00:45:30.875Z,101588.91
2023-04-07T00:47:57.397Z,101589.25
2023-04-07T00:50:23.635Z,101582.81
2023-04-07T00:52:50.074Z,101576.78
2023-04-07T00:55:16.329Z,101621.63
2023-04-07T00:57:42.528Z,101661.44
2023-04-07T01:00:08.919Z,101662.53
2023-04-07T01:02:41.645Z,101651.09
2023-04-07T01:05:13.416Z,101636.41
2023-04-07T01:08:00.191Z,101566.19
2023-04-07T01:10:43.820Z,101520.13
2023-04-07T01:13:13.905Z,101437.84
2023-04-07T01:15:40.160Z,101420.13
2023-04-07T01:18:17.559Z,101423.22
2023-04-07T01:20:43.794Z,101481.41
2023-04-07T01:23:09.992Z,101502.00
2023-04-07T01:25:36.178Z,101525.66
2023-04-07T01:28:09.570Z,101546.91
2023-04-07T01:30:36.054Z,101519.75
2023-04-07T01:33:02.321Z,101498.13
2023-04-07T01:35:29.432Z,101505.38
2023-04-07T01:37:55.685Z,101506.13
2023-04-07T01:40:21.940Z,101517.22
2023-04-07T01:42:48.262Z,101507.56
2023-04-07T01:45:14.495Z,101508.00
2023-04-07T01:47:40.718Z,101513.88
2023-04-07T01:50:07.234Z,101471.88
2023-04-07T01:52:33.478Z,101469.94
2023-04-07T01:54:59.701Z,101461.28
2023-04-07T01:57:25.982Z,101425.81
2023-04-07T01:59:52.869Z,101429.34
2023-04-07T02:02:19.176Z,101433.91
2023-04-07T02:04:54.769Z,101407.66
2023-04-07T02:07:22.118Z,101412.34
2023-04-07T02:09:48.335Z,101376.78
2023-04-07T02:12:14.571Z,101359.56
2023-04-07T02:14:40.785Z,101343.69
2023-04-07T02:17:06.995Z,101304.09
2023-04-07T02:19:33.533Z,101309.59
2023-04-07T02:21:59.745Z,101274.69
2023-04-07T02:24:25.946Z,101285.78
2023-04-07T02:26:52.149Z,101289.47
2023-04-07T02:29:18.350Z,101294.31
2023-04-07T02:31:44.601Z,101320.31
2023-04-07T02:34:10.825Z,101350.38
2023-04-07T02:36:37.081Z,101323.97
2023-04-07T02:39:03.302Z,101373.81
2023-04-07T02:41:29.515Z,101389.25
2023-04-07T02:43:55.975Z,101406.94
2023-04-07T02:46:22.383Z,101447.75
2023-04-07T02:48:48.619Z,101478.13
2023-04-07T02:51:14.840Z,101498.03
2023-04-07T02:53:41.048Z,101515.13
2023-04-07T02:56:07.268Z,101517.63
2023-04-07T02:58:33.478Z,101547.50
2023-04-07T03:00:59.728Z,101546.63
2023-04-07T03:03:26.069Z,101546.03
2023-04-07T03:05:52.440Z,101568.19
2023-04-07T03:08:18.647Z,101563.66
2023-04-07T03:10:44.887Z,101560.03
2023-04-07T03:13:11.100Z,101576.97
2023-04-07T03:15:37.293Z,101582.84
2023-04-07T03:18:03.596Z,101578.97
2023-04-07T03:20:29.903Z,101584.38
2023-04-07T03:22:56.124Z,101574.56
2023-04-07T03:25:22.356Z,101567.13
2023-04-07T03:27:48.582Z,101560.38
2023-04-07T03:30:14.793Z,101556.53
2023-04-07T03:32:41.059Z,101543.53
2023-04-07T03:35:07.516Z,101531.09
2023-04-07T03:37:33.735Z,101523.41
2023-04-07T03:39:59.927Z,101500.69
2023-04-07T03:42:26.163Z,101496.44
2023-04-07T03:44:52.363Z,101493.34
2023-04-07T03:47:18.603Z,101490.94
2023-04-07T03:49:44.800Z,101486.22
2023-04-07T03:52:11.407Z,101481.84
2023-04-07T03:54:37.615Z,101471.91
2023-04-07T03:57:03.837Z,101482.50
2023-04-07T03:59:30.056Z,101466.50
2023-04-07T04:01:56.349Z,101465.00
2023-04-07T04:04:22.628Z,101439.44
2023-04-07T04:06:48.938Z,101440.47
2023-04-07T04:09:15.161Z,101420.09
2023-04-07T04:11:41.374Z,101417.19
2023-04-07T04:14:07.573Z,101379.19
2023-04-07T04:16:35.555Z,101390.59
2023-04-07T04:19:01.814Z,101384.44
2023-04-07T04:21:28.040Z,101356.88
2023-04-07T04:23:54.512Z,101337.88
2023-04-07T04:26:20.875Z,101330.00
2023-04-07T04:28:47.094Z,101329.22
2023-04-07T04:31:13.354Z,101311.28
2023-04-07T04:33:39.611Z,101325.13
2023-04-07T04:36:05.994Z,101360.75
2023-04-07T04:38:32.223Z,101391.94
2023-04-07T04:40:58.433Z,101392.56
2023-04-07T04:43:24.668Z,101414.44
2023-04-07T04:45:50.881Z,101429.56
2023-04-07T04:48:17.101Z,101438.44
2023-04-07T04:50:43.320Z,101448.66
2023-04-07T04:53:09.559Z,101441.53
2023-04-07T04:55:35.990Z,101455.75
2023-04-07T04:58:02.197Z,101446.91
2023-04-07T05:00:28.473Z,101445.63
2023-04-07T05:02:54.913Z,101440.28
2023-04-07T05:05:21.458Z,101421.41
2023-04-07T05:07:47.782Z,101388.22
2023-04-07T05:10:14.001Z,101353.34
2023-04-07T05:12:40.251Z,101346.00
2023-04-07T05:15:06.811Z,101339.22
2023-04-07T05:17:33.078Z,101330.47
2023-04-07T05:19:59.300Z,101291.44
2023-04-07T05:22:25.521Z,101231.88
2023-04-07T05:24:51.742Z,101194.88
2023-04-07T05:27:17.965Z,101138.94
2023-04-07T05:29:44.171Z,101061.34
2023-04-07T05:32:10.382Z,101007.84
2023-04-07T05:34:36.598Z,100994.25
2023-04-07T05:37:02.828Z,101029.03
2023-04-07T05:39:29.031Z,101055.03
2023-04-07T05:41:55.281Z,101107.94
2023-04-07T05:44:21.483Z,101133.88
2023-04-07T05:46:47.695Z,101168.09
2023-04-07T05:49:20.215Z,101204.28
2023-04-07T05:51:48.365Z,101252.66
2023-04-07T05:54:15.248Z,101283.72
2023-04-07T05:56:41.479Z,101315.06
2023-04-07T05:59:07.695Z,101333.41
2023-04-07T06:01:33.906Z,101322.47
2023-04-07T06:04:00.204Z,101309.72
2023-04-07T06:06:26.452Z,101317.47
2023-04-07T06:08:52.686Z,101344.88
2023-04-07T06:11:18.905Z,101324.94
2023-04-07T06:13:45.127Z,101276.38
2023-04-07T06:16:11.373Z,101198.50
2023-04-07T06:18:37.641Z,101132.59
2023-04-07T06:21:03.863Z,101052.00
2023-04-07T06:23:30.403Z,101007.25
2023-04-07T06:25:56.613Z,100939.09
2023-04-07T06:28:22.840Z,100920.53
2023-04-07T06:30:49.144Z,100955.97
2023-04-07T06:33:15.364Z,101027.94
2023-04-07T06:35:41.580Z,101084.00
2023-04-07T06:38:07.799Z,101075.81
2023-04-07T06:40:34.049Z,101100.16
2023-04-07T06:43:00.251Z,101092.50
2023-04-07T06:45:26.477Z,101095.75
2023-04-07T06:47:52.787Z,101072.69
2023-04-07T06:50:19.057Z,101087.34
2023-04-07T06:52:45.271Z,101067.66
2023-04-07T06:55:11.515Z,101079.22
2023-04-07T06:57:37.723Z,101118.53
2023-04-07T07:00:04.066Z,101196.41
2023-04-07T07:02:30.603Z,101237.03
2023-04-07T07:04:56.948Z,101245.53
2023-04-07T07:07:23.162Z,101283.56
2023-04-07T07:09:49.362Z,101268.63
2023-04-07T07:12:15.592Z,101186.44
2023-04-07T07:14:41.846Z,101165.06
2023-04-07T07:17:08.053Z,101150.41
2023-04-07T07:19:34.264Z,101167.47
2023-04-07T07:22:00.979Z,101184.97
2023-04-07T07:24:27.179Z,101180.19
2023-04-07T07:26:53.376Z,101213.84
2023-04-07T07:29:20.248Z,101215.25
2023-04-07T07:31:46.440Z,101206.03
2023-04-07T07:34:12.650Z,101169.00
2023-04-07T07:36:38.858Z,101152.22
2023-04-07T07:39:05.074Z,101109.34
2023-04-07T07:41:31.268Z,101182.47
2023-04-07T07:43:57.495Z,101142.84
2023-04-07T07:46:23.768Z,101152.63
2023-04-07T07:48:50.217Z,101189.78
2023-04-07T07:51:16.421Z,101200.41
2023-04-07T07:53:42.650Z,101249.41
2023-04-07T07:56:08.877Z,101263.44
2023-04-07T07:58:35.091Z,101252.91
2023-04-07T08:01:01.318Z,101242.41
2023-04-07T08:03:27.878Z,101203.72
2023-04-07T08:05:54.180Z,101289.59
2023-04-07T08:08:20.508Z,101311.31
2023-04-07T08:10:46.724Z,101309.84
2023-04-07T08:13:12.935Z,101301.25
2023-04-07T08:15:39.350Z,101212.38
2023-04-07T08:18:05.606Z,101167.53
2023-04-07T08:20:31.983Z,101068.78
2023-04-07T08:22:58.193Z,101033.25
2023-04-07T08:25:24.383Z,101005.41
2023-04-07T08:27:50.584Z,100966.88
2023-04-07T08:30:16.816Z,100920.28
2023-04-07T08:32:43.703Z,100882.56
2023-04-07T08:35:09.976Z,100762.38
2023-04-07T08:37:36.307Z,100717.84
2023-04-07T08:40:02.551Z,100636.06
2023-04-07T08:42:29.682Z,100562.53
2023-04-07T08:44:56.304Z,100569.13
2023-04-07T08:47:22.678Z,100579.88
2023-04-07T08:49:48.934Z,100642.03
2023-04-07T08:52:15.132Z,100802.13
2023-04-07T08:54:41.338Z,100775.66
2023-04-07T08:57:07.812Z,100716.41
2023-04-07T08:59:34.121Z,100563.22
2023-04-07T09:02:00.351Z,100572.78
2023-04-07T09:04:26.574Z,100673.50
2023-04-07T09:06:52.780Z,100569.75
2023-04-07T09:09:18.994Z,100580.41
2023-04-07T09:11:45.192Z,100718.69
2023-04-07T09:14:11.405Z,100692.25
2023-04-07T09:16:37.684Z,100758.97
2023-04-07T09:19:04.063Z,100855.00
2023-04-07T09:21:46.611Z,100722.75
2023-04-07T09:24:22.885Z,100671.38
2023-04-07T09:26:49.091Z,100724.25
2023-04-07T09:29:18.956Z,100688.69
2023-04-07T09:31:45.808Z,100700.88
2023-04-07T09:34:23.543Z,100742.72
2023-04-07T09:36:49.878Z,100886.03
2023-04-07T09:39:16.092Z,100816.25
2023-04-07T09:41:42.326Z,100749.25
2023-04-07T09:44:08.632Z,100688.31
2023-04-07T09:46:34.928Z,100751.31
2023-04-07T09:49:01.860Z,100823.78
2023-04-07T09:51:28.062Z,100748.00
2023-04-07T09:53:54.302Z,100686.84
2023-04-07T09:56:20.768Z,100620.25
2023-04-07T09:58:46.985Z,100546.00
2023-04-07T10:01:13.533Z,100650.38
2023-04-07T10:03:39.941Z,100555.28
2023-04-07T10:06:06.552Z,100584.88
2023-04-07T10:08:33.273Z,100577.22
2023-04-07T10:11:00.757Z,100625.16
2023-04-07T10:13:27.016Z,100523.44
2023-04-07T10:15:53.237Z,100624.78
2023-04-07T10:18:20.235Z,100552.47
2023-04-07T10:20:47.328Z,100487.88
2023-04-07T10:23:16.321Z,100563.66
2023-04-07T10:25:42.536Z,100653.25
2023-04-07T10:28:08.775Z,100591.81
2023-04-07T10:30:34.985Z,100684.81
2023-04-07T10:33:01.327Z,100842.81
2023-04-07T10:35:27.664Z,100749.75
2023-04-07T10:38:09.008Z,100731.25
2023-04-07T10:40:35.552Z,100766.63
2023-04-07T10:43:01.808Z,100800.59
2023-04-07T10:45:46.935Z,100694.91
2023-04-07T10:48:13.349Z,100892.34
2023-04-07T10:50:39.573Z,100814.25
2023-04-07T10:53:05.718Z,100710.03
2023-04-07T10:55:38.505Z,100603.56
2023-04-07T10:58:12.813Z,100644.28
2023-04-07T11:00:39.024Z,100719.13
2023-04-07T11:03:10.170Z,100775.91
2023-04-07T11:05:36.509Z,100876.97
2023-04-07T11:08:02.727Z,100911.75
2023-04-07T11:10:28.957Z,100934.25
2023-04-07T11:12:58.939Z,100986.03
2023-04-07T11:15:25.161Z,101087.28
2023-04-07T11:18:30.014Z,101125.84
2023-04-07T11:20:56.803Z,101309.09
2023-04-07T11:23:23.405Z,101374.38
2023-04-07T11:25:50.069Z,101321.88
2023-04-07T11:28:16.330Z,101306.28
2023-04-07T11:30:49.658Z,101374.81
2023-04-07T11:33:16.526Z,101324.06
2023-04-07T11:35:49.674Z,101316.25
2023-04-07T11:38:15.894Z,101363.16
2023-04-07T11:40:42.110Z,101440.56
2023-04-07T11:43:17.355Z,101499.94
2023-04-07T11:45:43.637Z,101425.47
2023-04-07T11:48:28.363Z,101450.00
2023-04-07T11:50:54.574Z,101469.16
2023-04-07T11:53:50.424Z,101463.09
2023-04-07T11:56:16.859Z,101489.03
2023-04-07T11:58:49.485Z,101502.66
2023-04-07T12:01:15.693Z,101503.34
2023-04-07T12:03:54.911Z,101482.50
2023-04-07T12:06:30.997Z,101534.47
2023-04-07T12:08:57.191Z,101472.50
2023-04-07T12:11:23.405Z,101505.41
2023-04-07T12:13:50.005Z,101569.03
2023-04-07T12:16:16.560Z,101538.47
2023-04-07T12:18:42.826Z,101572.00
2023-04-07T12:21:09.044Z,101574.66
2023-04-07T12:23:35.250Z,101563.59
2023-04-07T12:26:01.474Z,101538.09
2023-04-07T12:28:27.692Z,101538.47
2023-04-07T12:30:54.177Z,101519.47
2023-04-07T12:33:20.393Z,101564.09
2023-04-07T12:35:46.765Z,101556.81
2023-04-07T12:38:13.211Z,101578.69
2023-04-07T12:40:39.406Z,101614.88
2023-04-07T12:43:05.627Z,101620.63
2023-04-07T12:45:31.816Z,101634.59
2023-04-07T12:47:58.168Z,101639.63
2023-04-07T12:50:24.460Z,101639.19
2023-04-07T12:52:50.997Z,101644.97
2023-04-07T12:55:17.182Z,101639.00
2023-04-07T12:57:43.395Z,101638.41
2023-04-07T13:00:09.838Z,101632.66
2023-04-07T13:02:36.146Z,101616.13
2023-04-07T13:05:02.540Z,101615.63
2023-04-07T13:07:28.756Z,101632.59
2023-04-07T13:09:54.965Z,101617.41
2023-04-07T13:12:21.181Z,101586.84
2023-04-07T13:14:59.080Z,101583.78
2023-04-07T13:17:25.808Z,101585.16
2023-04-07T13:19:52.031Z,101587.56
2023-04-07T13:22:21.895Z,101561.75
2023-04-07T13:24:49.518Z,101561.56
2023-04-07T13:27:15.719Z,101560.59
2023-04-07T13:29:41.926Z,101551.53
2023-04-07T13:32:08.332Z,101550.34
2023-04-07T13:34:34.999Z,101546.22
2023-04-07T13:37:01.584Z,101565.66
2023-04-07T13:39:27.828Z,101576.03
2023-04-07T13:41:54.060Z,101582.00
2023-04-07T13:44:20.263Z,101566.41
2023-04-07T13:46:46.504Z,101567.66
2023-04-07T13:49:12.745Z,101567.03
2023-04-07T13:51:38.956Z,101570.34
2023-04-07T13:54:05.199Z,101560.81
2023-04-07T13:56:31.432Z,101559.09
2023-04-07T13:58:57.667Z,101554.97
2023-04-07T14:01:23.896Z,101549.97
2023-04-07T14:03:50.426Z,101549.78
2023-04-07T14:06:16.889Z,101549.13
2023-04-07T14:08:43.105Z,101543.31
2023-04-07T14:11:09.308Z,101538.94
2023-04-07T14:13:35.515Z,101527.50
2023-04-07T14:16:01.858Z,101531.25
2023-04-07T14:18:28.126Z,101521.69
2023-04-07T14:20:54.325Z,101510.72
2023-04-07T14:23:30.270Z,101507.41
2023-04-07T14:26:02.631Z,101496.38
2023-04-07T14:28:28.867Z,101491.56
2023-04-07T14:30:55.075Z,101480.84
2023-04-07T14:33:21.470Z,101481.53
2023-04-07T14:35:47.983Z,101473.97
2023-04-07T14:38:14.236Z,101470.75
2023-04-07T14:40:40.692Z,101464.41
2023-04-07T14:43:07.727Z,101459.84
2023-04-07T14:45:34.306Z,101447.81
2023-04-07T14:48:00.559Z,101442.25
2023-04-07T14:50:26.785Z,101428.78
2023-04-07T14:52:52.989Z,101431.22
2023-04-07T14:55:19.336Z,101422.81
2023-04-07T14:57:45.764Z,101424.09
2023-04-07T15:00:12.144Z,101413.38
2023-04-07T15:02:38.856Z,101407.38
2023-04-07T15:05:05.941Z,101397.91
2023-04-07T15:07:32.142Z,101384.09
2023-04-07T15:09:58.373Z,101395.97
2023-04-07T15:12:24.595Z,101395.97
2023-04-07T15:14:50.830Z,101375.94
2023-04-07T15:17:17.024Z,101370.66
2023-04-07T15:19:43.246Z,101363.03
2023-04-07T15:22:09.437Z,101358.81
2023-04-07T15:24:35.647Z,101343.66
2023-04-07T15:27:01.850Z,101334.91
2023-04-07T15:29:28.087Z,101325.56
2023-04-07T15:31:54.339Z,101319.94
2023-04-07T15:34:20.579Z,101304.00
2023-04-07T15:36:46.786Z,101291.50
2023-04-07T15:39:13.019Z,101280.72
2023-04-07T15:41:39.224Z,101268.59
2023-04-07T15:44:05.477Z,101261.25
2023-04-07T15:46:31.722Z,101241.81
2023-04-07T15:48:57.981Z,101230.97
2023-04-07T15:51:24.193Z,101220.25
2023-04-07T15:53:50.588Z,101218.47
2023-04-07T15:56:16.890Z,101193.03
2023-04-07T15:58:43.095Z,101178.47
2023-04-07T16:01:09.351Z,101167.53
2023-04-07T16:03:35.651Z,101161.13
2023-04-07T16:06:01.901Z,101157.56
2023-04-07T16:08:28.130Z,101144.16
2023-04-07T16:10:54.373Z,101126.06
2023-04-07T16:13:20.687Z,101121.75
2023-04-07T16:15:46.914Z,101124.97
2023-04-07T16:18:13.137Z,101114.38
2023-04-07T16:20:39.390Z,101112.22
2023-04-07T16:23:05.640Z,101108.28
2023-04-07T16:28:24.012Z,101100.47
2023-04-07T16:30:54.578Z,101085.56
2023-04-07T16:33:25.966Z,101078.78
2023-04-07T16:35:52.400Z,101072.00
2023-04-07T16:38:18.645Z,101060.88
2023-04-07T16:40:56.813Z,101055.50
2023-04-07T16:43:38.843Z,101036.78
2023-04-07T16:46:05.189Z,101034.00
2023-04-07T16:48:31.427Z,101027.84
2023-04-07T16:50:57.624Z,101015.13
2023-04-07T16:53:25.116Z,101013.94
2023-04-07T16:55:51.368Z,101003.78
2023-04-07T16:58:17.584Z,100994.03
2023-04-07T17:00:43.818Z,100980.69
2023-04-07T17:03:10.163Z,100975.13
2023-04-07T17:05:36.539Z,100971.56
2023-04-07T17:08:02.789Z,100968.97
2023-04-07T17:10:28.998Z,100962.81
2023-04-07T17:12:55.257Z,100960.81
2023-04-07T17:15:22.040Z,100958.03
2023-04-07T17:17:48.430Z,100943.44
2023-04-07T17:20:14.670Z,100931.31
2023-04-07T17:22:40.871Z,100924.53
2023-04-07T17:25:07.322Z,100907.44
2023-04-07T17:27:33.559Z,100912.84
2023-04-07T17:29:59.775Z,100884.94
2023-04-07T17:32:26.125Z,100881.00
2023-04-07T17:34:52.405Z,100873.06
2023-04-07T17:37:18.651Z,100867.09
2023-04-07T17:39:44.883Z,100858.91
2023-04-07T17:42:11.184Z,100841.41
2023-04-07T17:44:37.453Z,100838.81
2023-04-07T17:47:03.667Z,100834.84
2023-04-07T17:49:29.928Z,100822.50
2023-04-07T17:51:56.127Z,100809.97
2023-04-07T17:54:22.387Z,100815.13
2023-04-07T17:56:48.897Z,100805.22
2023-04-07T17:59:15.144Z,100803.81
2023-04-07T18:01:41.482Z,100807.38
2023-04-07T18:04:07.813Z,100802.81
2023-04-07T18:06:34.165Z,100802.03
2023-04-07T18:09:00.397Z,100797.44
2023-04-07T18:11:26.603Z,100790.50
2023-04-07T18:13:52.825Z,100784.31
2023-04-07T18:16:21.892Z,100777.34
2023-04-07T18:18:48.589Z,100769.19
2023-04-07T18:21:14.827Z,100773.38
2023-04-07T18:23:41.069Z,100771.34
2023-04-07T18:26:07.355Z,100765.16
2023-04-07T18:28:33.564Z,100761.78
2023-04-07T18:31:08.813Z,100748.13
2023-04-07T18:33:35.226Z,100739.31
2023-04-07T18:36:05.056Z,100736.94
2023-04-07T18:38:31.356Z,100728.38
2023-04-07T18:40:57.567Z,100718.22
2023-04-07T18:43:23.782Z,100712.50
2023-04-07T18:45:50.036Z,100707.69
2023-04-07T18:48:16.266Z,100705.13
2023-04-07T18:50:42.492Z,100693.97
2023-04-07T18:53:08.698Z,100687.63
2023-04-07T18:55:34.904Z,100684.25
2023-04-07T18:58:01.138Z,100675.50
2023-04-07T19:00:27.352Z,100659.00
2023-04-07T19:02:53.758Z,100653.41
2023-04-07T19:05:23.042Z,100644.50
2023-04-07T19:07:51.432Z,100634.16
2023-04-07T19:10:17.643Z,100628.75
2023-04-07T19:12:44.327Z,100626.41
2023-04-07T19:15:10.783Z,100607.88
2023-04-07T19:17:37.064Z,100597.97
2023-04-07T19:20:03.341Z,100587.63
2023-04-07T19:22:29.562Z,100579.66
2023-04-07T19:24:55.791Z,100565.56
2023-04-07T19:27:22.045Z,100552.00
2023-04-07T19:29:48.268Z,100537.72
2023-04-07T19:32:14.490Z,100526.94
2023-04-07T19:34:40.705Z,100509.25
2023-04-07T19:37:06.902Z,100501.91
2023-04-07T19:39:33.120Z,100497.72
2023-04-07T19:41:59.352Z,100474.69
2023-04-07T19:44:25.738Z,100464.13
2023-04-07T19:46:51.961Z,100449.19
2023-04-07T19:49:18.164Z,100442.44
2023-04-07T19:51:44.366Z,100432.75
2023-04-07T19:54:10.569Z,100418.81
2023-04-07T19:56:37.114Z,100405.91
2023-04-07T19:59:03.333Z,100399.88
2023-04-07T20:01:29.592Z,100389.16
2023-04-07T20:03:56.111Z,100385.22
2023-04-07T20:06:22.769Z,100370.88
2023-04-07T20:08:49.126Z,100356.59
2023-04-07T20:11:15.483Z,100349.03
2023-04-07T20:13:41.710Z,100334.31
2023-04-07T20:16:08.111Z,100316.78
2023-04-07T20:18:34.426Z,100299.28
2023-04-07T20:21:00.972Z,100287.34
2023-04-07T20:23:27.232Z,100282.00
2023-04-07T20:25:53.447Z,100271.84
2023-04-07T20:28:19.887Z,100253.34
2023-04-07T20:30:46.198Z,100232.88
2023-04-07T20:33:12.685Z,100228.69
2023-04-07T20:35:40.547Z,100214.56
2023-04-07T20:38:07.043Z,100200.66
2023-04-07T20:40:36.602Z,100188.72
2023-04-07T20:43:03.385Z,100174.00
2023-04-07T20:45:36.522Z,100163.47
2023-04-07T20:48:07.266Z,100145.19
2023-04-07T20:50:33.495Z,100127.69
2023-04-07T20:52:59.801Z,100119.91
2023-04-07T20:55:26.052Z,100102.03
2023-04-07T20:57:52.252Z,100085.69
2023-04-07T21:00:19.035Z,100082.50
2023-04-07T21:02:45.596Z,100067.22
2023-04-07T21:05:11.934Z,100048.13
2023-04-07T21:07:38.142Z,100040.38
2023-04-07T21:10:04.672Z,100034.78
2023-04-07T21:12:30.933Z,100025.44
2023-04-07T21:14:57.137Z,100011.94
2023-04-07T21:17:23.407Z,99997.78
2023-04-07T21:19:49.632Z,99990.03
2023-04-07T21:22:15.864Z,99984.66
2023-04-07T21:24:42.066Z,99974.31
2023-04-07T21:27:08.277Z,99961.94
2023-04-07T21:29:34.501Z,99946.66
2023-04-07T21:32:00.723Z,99939.13
2023-04-07T21:34:26.922Z,99928.78
2023-04-07T21:36:53.195Z,99917.66
2023-04-07T21:39:19.400Z,99897.09
2023-04-07T21:41:45.680Z,99890.59
2023-04-07T21:44:11.903Z,99886.41
2023-04-07T21:46:38.195Z,99877.19
2023-04-07T21:49:04.545Z,99868.47
2023-04-07T21:51:30.775Z,99858.31
2023-04-07T21:53:56.984Z,99855.72
2023-04-07T21:56:23.235Z,99848.56
2023-04-07T21:58:49.576Z,99834.25
2023-04-07T22:01:16.913Z,99822.34
2023-04-07T22:03:43.318Z,99806.81
2023-04-07T22:06:09.566Z,99794.69
2023-04-07T22:08:35.760Z,99782.00
2023-04-07T22:11:02.004Z,99775.81
2023-04-07T22:13:28.220Z,99763.91
2023-04-07T22:15:54.475Z,99756.16
2023-04-07T22:18:22.038Z,99755.38
2023-04-07T22:20:48.494Z,99740.78
2023-04-07T22:23:14.705Z,99739.19
2023-04-07T22:25:40.929Z,99723.88
2023-04-07T22:28:07.158Z,99723.88
2023-04-07T22:30:33.485Z,99718.94
2023-04-07T22:32:59.773Z,99705.78
2023-04-07T22:35:26.033Z,99700.84
2023-04-07T22:37:52.295Z,99701.88
2023-04-07T22:40:18.489Z,99692.34
2023-04-07T22:42:44.760Z,99684.31
2023-04-07T22:45:11.005Z,99683.00
2023-04-07T22:47:37.251Z,99685.09
2023-04-07T22:50:03.506Z,99683.78
2023-04-07T22:52:29.756Z,99678.63
2023-04-07T22:54:55.986Z,99664.25
2023-04-07T22:57:22.224Z,99679.16
2023-04-07T22:59:48.517Z,99670.38
2023-04-07T23:02:14.855Z,99669.97
2023-04-07T23:04:41.218Z,99673.56
2023-04-07T23:07:07.475Z,99682.34
2023-04-07T23:09:33.682Z,99673.44
2023-04-07T23:11:59.902Z,99675.78
2023-04-07T23:14:26.119Z,99668.41
2023-04-07T23:16:52.374Z,99665.03
2023-04-07T23:19:18.577Z,99668.50
2023-04-07T23:21:44.798Z,99675.16
2023-04-07T23:24:11.074Z,99668.19
2023-04-07T23:26:37.292Z,99679.53
2023-04-07T23:29:03.563Z,99660.97
2023-04-07T23:31:29.933Z,99674.34
2023-04-07T23:33:57.318Z,99673.34
2023-04-07T23:36:23.528Z,99670.38
2023-04-07T23:38:49.896Z,99682.00
2023-04-07T23:41:16.318Z,99683.91
2023-04-07T23:43:42.514Z,99674.25
2023-04-07T23:46:08.833Z,99677.56
2023-04-07T23:48:35.063Z,99678.16
2023-04-07T23:51:15.773Z,99680.66
2023-04-07T23:53:42.013Z,99665.44
2023-04-07T23:56:08.227Z,99664.44
2023-04-07T23:58:34.438Z,99672.53
